sensor_id;sensor_type;location;lat;lon;timestamp;pressure;altitude;pressure_sealevel;temperature;humidity
42067;BME280;27734;47.028;28.820;2024-01-15T00:01:51;99595.52;;;-6.55;73.07
42067;BME280;27734;47.028;28.820;2024-01-15T00:04:23;99602.84;;;-6.49;72.64
42067;BME280;27734;47.028;28.820;2024-01-15T00:06:54;99597.19;;;-6.56;72.53
42067;BME280;27734;47.028;28.820;2024-01-15T00:09:25;99608.22;;;-6.65;72.55
42067;BME280;27734;47.028;28.820;2024-01-15T00:11:57;99613.19;;;-6.67;71.87
42067;BME280;27734;47.028;28.820;2024-01-15T00:14:28;99613.32;;;-6.65;72.69
42067;BME280;27734;47.028;28.820;2024-01-15T00:16:59;99616.99;;;-6.72;72.01
42067;BME280;27734;47.028;28.820;2024-01-15T00:19:31;99611.57;;;-6.85;71.81
42067;BME280;27734;47.028;28.820;2024-01-15T00:22:02;99613.02;;;-6.98;71.86
42067;BME280;27734;47.028;28.820;2024-01-15T00:24:33;99621.33;;;-7.09;71.59
42067;BME280;27734;47.028;28.820;2024-01-15T00:27:05;99618.03;;;-7.08;71.81
42067;BME280;27734;47.028;28.820;2024-01-15T00:29:36;99616.18;;;-7.00;72.39
42067;BME280;27734;47.028;28.820;2024-01-15T00:32:08;99626.94;;;-6.94;73.11
42067;BME280;27734;47.028;28.820;2024-01-15T00:34:39;99626.19;;;-6.93;72.10
42067;BME280;27734;47.028;28.820;2024-01-15T00:37:11;99617.01;;;-6.91;72.26
42067;BME280;27734;47.028;28.820;2024-01-15T00:39:42;99615.01;;;-6.85;72.05
42067;BME280;27734;47.028;28.820;2024-01-15T00:42:13;99613.00;;;-6.79;72.34
42067;BME280;27734;47.028;28.820;2024-01-15T00:44:44;99611.00;;;-6.73;72.26
42067;BME280;27734;47.028;28.820;2024-01-15T00:47:16;99614.72;;;-6.69;72.56
42067;BME280;27734;47.028;28.820;2024-01-15T00:49:48;99607.33;;;-6.66;72.63
42067;BME280;27734;47.028;28.820;2024-01-15T00:52:19;99604.17;;;-6.63;72.18
42067;BME280;27734;47.028;28.820;2024-01-15T00:54:51;99604.44;;;-6.60;73.16
42067;BME280;27734;47.028;28.820;2024-01-15T00:57:22;99598.41;;;-6.61;72.76
42067;BME280;27734;47.028;28.820;2024-01-15T00:59:53;99601.48;;;-6.65;72.22
42067;BME280;27734;47.028;28.820;2024-01-15T01:02:24;99602.09;;;-6.67;72.98
42067;BME280;27734;47.028;28.820;2024-01-15T01:04:55;99600.94;;;-6.71;72.31
42067;BME280;27734;47.028;28.820;2024-01-15T01:07:27;99603.08;;;-6.76;72.64
42067;BME280;27734;47.028;28.820;2024-01-15T01:09:58;99604.44;;;-6.79;71.82
42067;BME280;27734;47.028;28.820;2024-01-15T01:12:29;99599.98;;;-6.82;72.76
42067;BME280;27734;47.028;28.820;2024-01-15T01:15:00;99605.22;;;-6.80;72.47
42067;BME280;27734;47.028;28.820;2024-01-15T01:17:32;99591.55;;;-6.81;72.50
42067;BME280;27734;47.028;28.820;2024-01-15T01:20:05;99598.72;;;-6.77;72.68
42067;BME280;27734;47.028;28.820;2024-01-15T01:22:38;99599.74;;;-6.75;73.41
42067;BME280;27734;47.028;28.820;2024-01-15T01:25:10;99598.99;;;-6.74;73.24
42067;BME280;27734;47.028;28.820;2024-01-15T01:27:41;99598.99;;;-6.74;72.63
42067;BME280;27734;47.028;28.820;2024-01-15T01:30:12;99590.05;;;-6.79;72.49
42067;BME280;27734;47.028;28.820;2024-01-15T01:32:44;99590.05;;;-6.79;72.35
42067;BME280;27734;47.028;28.820;2024-01-15T01:35:15;99584.94;;;-6.79;73.10
42067;BME280;27734;47.028;28.820;2024-01-15T01:37:46;99587.08;;;-6.83;72.10
42067;BME280;27734;47.028;28.820;2024-01-15T01:40:17;99588.61;;;-6.85;72.70
42067;BME280;27734;47.028;28.820;2024-01-15T01:42:49;99596.27;;;-6.85;72.46
42067;BME280;27734;47.028;28.820;2024-01-15T01:45:20;99588.61;;;-6.85;72.34
42067;BME280;27734;47.028;28.820;2024-01-15T01:47:51;99595.34;;;-6.86;72.40
42067;BME280;27734;47.028;28.820;2024-01-15T01:50:22;99581.06;;;-6.84;73.07
42067;BME280;27734;47.028;28.820;2024-01-15T01:52:54;99586.30;;;-6.82;72.40
42067;BME280;27734;47.028;28.820;2024-01-15T01:55:27;99584.02;;;-6.79;72.47
42067;BME280;27734;47.028;28.820;2024-01-15T01:58:00;99584.02;;;-6.79;72.61
42067;BME280;27734;47.028;28.820;2024-01-15T02:00:33;99579.70;;;-6.80;72.52
42067;BME280;27734;47.028;28.820;2024-01-15T02:03:06;99583.28;;;-6.78;73.16
42067;BME280;27734;47.028;28.820;2024-01-15T02:05:37;99586.84;;;-6.76;73.46
42067;BME280;27734;47.028;28.820;2024-01-15T02:08:10;99584.94;;;-6.79;72.93
42067;BME280;27734;47.028;28.820;2024-01-15T02:10:41;99584.80;;;-6.80;72.76
42067;BME280;27734;47.028;28.820;2024-01-15T02:13:12;99585.69;;;-6.80;72.47
42067;BME280;27734;47.028;28.820;2024-01-15T02:15:44;99588.66;;;-6.75;73.37
42067;BME280;27734;47.028;28.820;2024-01-15T02:18:15;99577.70;;;-6.74;72.56
42067;BME280;27734;47.028;28.820;2024-01-15T02:20:46;99579.47;;;-6.73;72.78
42067;BME280;27734;47.028;28.820;2024-01-15T02:23:17;99572.09;;;-6.70;73.42
42067;BME280;27734;47.028;28.820;2024-01-15T02:25:52;99576.58;;;-6.67;73.04
42067;BME280;27734;47.028;28.820;2024-01-15T02:28:23;99564.70;;;-6.67;72.49
42067;BME280;27734;47.028;28.820;2024-01-15T02:30:54;99562.80;;;-6.70;73.67
42067;BME280;27734;47.028;28.820;2024-01-15T02:33:25;99560.86;;;-6.72;73.69
42067;BME280;27734;47.028;28.820;2024-01-15T02:35:56;99559.33;;;-6.70;73.21
42067;BME280;27734;47.028;28.820;2024-01-15T02:38:27;99560.38;;;-6.68;72.81
42067;BME280;27734;47.028;28.820;2024-01-15T02:40:58;99557.83;;;-6.68;73.16
42067;BME280;27734;47.028;28.820;2024-01-15T02:43:29;99560.52;;;-6.66;73.79
42067;BME280;27734;47.028;28.820;2024-01-15T02:46:01;99563.06;;;-6.66;73.79
42067;BME280;27734;47.028;28.820;2024-01-15T02:48:32;99573.68;;;-6.62;72.81
42067;BME280;27734;47.028;28.820;2024-01-15T02:51:05;99564.77;;;-6.57;73.07
42067;BME280;27734;47.028;28.820;2024-01-15T02:53:37;99566.43;;;-6.57;73.49
42067;BME280;27734;47.028;28.820;2024-01-15T02:56:08;99559.05;;;-6.54;73.44
42067;BME280;27734;47.028;28.820;2024-01-15T02:58:40;99564.15;;;-6.54;73.95
42067;BME280;27734;47.028;28.820;2024-01-15T03:01:11;99561.59;;;-6.54;73.33
42067;BME280;27734;47.028;28.820;2024-01-15T03:03:42;99558.26;;;-6.53;74.29
42067;BME280;27734;47.028;28.820;2024-01-15T03:06:13;99554.69;;;-6.55;73.36
42067;BME280;27734;47.028;28.820;2024-01-15T03:08:45;99554.69;;;-6.55;73.43
42067;BME280;27734;47.028;28.820;2024-01-15T03:11:16;99558.64;;;-6.59;73.02
42067;BME280;27734;47.028;28.820;2024-01-15T03:13:47;99555.95;;;-6.60;73.96
42067;BME280;27734;47.028;28.820;2024-01-15T03:16:18;99553.27;;;-6.62;73.84
42067;BME280;27734;47.028;28.820;2024-01-15T03:18:50;99556.91;;;-6.69;73.05
42067;BME280;27734;47.028;28.820;2024-01-15T03:21:21;99560.59;;;-6.75;73.31
42067;BME280;27734;47.028;28.820;2024-01-15T03:23:52;99553.41;;;-6.79;73.30
42067;BME280;27734;47.028;28.820;2024-01-15T03:26:24;99554.94;;;-6.81;72.98
42067;BME280;27734;47.028;28.820;2024-01-15T03:28:55;99555.45;;;-6.85;73.42
42067;BME280;27734;47.028;28.820;2024-01-15T03:31:26;99553.52;;;-6.88;73.55
42067;BME280;27734;47.028;28.820;2024-01-15T03:33:57;99552.63;;;-6.89;73.96
42067;BME280;27734;47.028;28.820;2024-01-15T03:36:28;99552.22;;;-6.93;72.51
42067;BME280;27734;47.028;28.820;2024-01-15T03:38:59;99546.70;;;-6.98;72.73
42067;BME280;27734;47.028;28.820;2024-01-15T03:41:30;99556.91;;;-6.98;73.49
42067;BME280;27734;47.028;28.820;2024-01-15T03:44:02;99560.62;;;-6.94;73.19
42067;BME280;27734;47.028;28.820;2024-01-15T03:46:33;99567.80;;;-6.90;73.37
42067;BME280;27734;47.028;28.820;2024-01-15T03:49:04;99566.13;;;-6.90;73.49
42067;BME280;27734;47.028;28.820;2024-01-15T03:51:36;99553.65;;;-6.87;73.75
42067;BME280;27734;47.028;28.820;2024-01-15T03:54:08;99568.45;;;-6.82;73.70
42067;BME280;27734;47.028;28.820;2024-01-15T03:56:39;99566.17;;;-6.79;73.50
42067;BME280;27734;47.028;28.820;2024-01-15T03:59:10;99565.28;;;-6.80;74.16
42067;BME280;27734;47.028;28.820;2024-01-15T04:01:41;99568.72;;;-6.79;73.54
42067;BME280;27734;47.028;28.820;2024-01-15T04:04:18;99564.80;;;-6.76;73.47
42067;BME280;27734;47.028;28.820;2024-01-15T04:06:49;99558.65;;;-6.78;74.10
42067;BME280;27734;47.028;28.820;2024-01-15T04:09:20;99575.89;;;-6.75;74.04
42067;BME280;27734;47.028;28.820;2024-01-15T04:11:52;99567.63;;;-6.73;73.87
42067;BME280;27734;47.028;28.820;2024-01-15T04:14:23;99557.69;;;-6.70;73.76
42067;BME280;27734;47.028;28.820;2024-01-15T04:16:55;99566.77;;;-6.63;73.79
42067;BME280;27734;47.028;28.820;2024-01-15T04:19:26;99565.52;;;-6.58;74.53
42067;BME280;27734;47.028;28.820;2024-01-15T04:22:00;99559.92;;;-6.54;74.16
42067;BME280;27734;47.028;28.820;2024-01-15T04:24:32;99565.78;;;-6.55;73.89
42067;BME280;27734;47.028;28.820;2024-01-15T04:27:04;99558.64;;;-6.59;74.27
42067;BME280;27734;47.028;28.820;2024-01-15T04:29:37;99555.03;;;-6.61;74.41
42067;BME280;27734;47.028;28.820;2024-01-15T04:32:09;99553.27;;;-6.62;73.90
42067;BME280;27734;47.028;28.820;2024-01-15T04:34:40;99548.43;;;-6.59;74.03
42067;BME280;27734;47.028;28.820;2024-01-15T04:37:11;99545.74;;;-6.60;74.07
42067;BME280;27734;47.028;28.820;2024-01-15T04:39:42;99544.96;;;-6.59;73.81
42067;BME280;27734;47.028;28.820;2024-01-15T04:42:13;99546.14;;;-6.56;74.49
42067;BME280;27734;47.028;28.820;2024-01-15T04:44:45;99549.72;;;-6.54;74.16
42067;BME280;27734;47.028;28.820;2024-01-15T04:47:16;99544.61;;;-6.54;74.00
42067;BME280;27734;47.028;28.820;2024-01-15T04:49:47;99543.86;;;-6.53;74.22
42067;BME280;27734;47.028;28.820;2024-01-15T04:52:18;99533.66;;;-6.53;74.54
42067;BME280;27734;47.028;28.820;2024-01-15T04:54:49;99530.05;;;-6.55;74.13
42067;BME280;27734;47.028;28.820;2024-01-15T04:57:21;99536.55;;;-6.58;74.53
42067;BME280;27734;47.028;28.820;2024-01-15T04:59:52;99537.95;;;-6.62;73.82
42067;BME280;27734;47.028;28.820;2024-01-15T05:02:23;99534.62;;;-6.61;74.34
42067;BME280;27734;47.028;28.820;2024-01-15T05:04:54;99524.14;;;-6.64;74.58
42067;BME280;27734;47.028;28.820;2024-01-15T05:07:25;99520.84;;;-6.63;74.38
42067;BME280;27734;47.028;28.820;2024-01-15T05:09:56;99517.67;;;-6.60;74.56
42067;BME280;27734;47.028;28.820;2024-01-15T05:12:27;99520.76;;;-6.54;74.23
42067;BME280;27734;47.028;28.820;2024-01-15T05:14:59;99514.13;;;-6.52;74.97
42067;BME280;27734;47.028;28.820;2024-01-15T05:17:30;99535.95;;;-6.45;74.26
42067;BME280;27734;47.028;28.820;2024-01-15T05:20:01;99523.59;;;-6.41;74.78
42067;BME280;27734;47.028;28.820;2024-01-15T05:22:32;99527.33;;;-6.37;74.82
42067;BME280;27734;47.028;28.820;2024-01-15T05:25:05;99527.20;;;-6.39;74.37
42067;BME280;27734;47.028;28.820;2024-01-15T05:27:36;99519.00;;;-6.45;74.11
42067;BME280;27734;47.028;28.820;2024-01-15T05:30:08;99514.66;;;-6.46;74.71
42067;BME280;27734;47.028;28.820;2024-01-15T05:32:40;99510.43;;;-6.45;74.74
42067;BME280;27734;47.028;28.820;2024-01-15T05:35:15;99497.05;;;-6.43;75.01
42067;BME280;27734;47.028;28.820;2024-01-15T05:37:46;99495.78;;;-6.38;74.37
42067;BME280;27734;47.028;28.820;2024-01-15T05:40:18;99502.56;;;-6.28;74.94
42067;BME280;27734;47.028;28.820;2024-01-15T05:42:49;99510.73;;;-6.32;74.16
42067;BME280;27734;47.028;28.820;2024-01-15T05:45:20;99507.53;;;-6.29;75.03
42067;BME280;27734;47.028;28.820;2024-01-15T05:47:51;99507.17;;;-6.24;74.54
42067;BME280;27734;47.028;28.820;2024-01-15T05:50:23;99515.23;;;-6.19;74.91
42067;BME280;27734;47.028;28.820;2024-01-15T05:52:54;99502.85;;;-6.15;74.78
42067;BME280;27734;47.028;28.820;2024-01-15T05:55:25;99509.37;;;-6.08;74.72
42067;BME280;27734;47.028;28.820;2024-01-15T05:57:59;99505.70;;;-6.01;74.76
42067;BME280;27734;47.028;28.820;2024-01-15T06:00:30;99511.55;;;-5.92;75.55
42067;BME280;27734;47.028;28.820;2024-01-15T06:03:02;99515.25;;;-5.88;75.13
42067;BME280;27734;47.028;28.820;2024-01-15T06:05:34;99519.33;;;-5.80;75.20
42067;BME280;27734;47.028;28.820;2024-01-15T06:08:05;99519.72;;;-5.75;75.37
42067;BME280;27734;47.028;28.820;2024-01-15T06:10:37;99514.11;;;-5.71;75.47
42067;BME280;27734;47.028;28.820;2024-01-15T06:13:08;99507.33;;;-5.71;74.98
42067;BME280;27734;47.028;28.820;2024-01-15T06:15:39;99507.70;;;-5.77;74.79
42067;BME280;27734;47.028;28.820;2024-01-15T06:18:10;99512.81;;;-5.77;74.41
42067;BME280;27734;47.028;28.820;2024-01-15T06:20:41;99517.42;;;-5.72;75.13
42067;BME280;27734;47.028;28.820;2024-01-15T06:23:12;99516.80;;;-5.70;74.78
42067;BME280;27734;47.028;28.820;2024-01-15T06:25:44;99511.41;;;-5.63;74.68
42067;BME280;27734;47.028;28.820;2024-01-15T06:28:15;99511.80;;;-5.58;74.67
42067;BME280;27734;47.028;28.820;2024-01-15T06:30:46;99509.88;;;-5.50;74.98
42067;BME280;27734;47.028;28.820;2024-01-15T06:33:18;99515.63;;;-5.43;75.12
42067;BME280;27734;47.028;28.820;2024-01-15T06:35:49;99515.50;;;-5.34;75.03
42067;BME280;27734;47.028;28.820;2024-01-15T06:38:22;99514.45;;;-5.26;75.18
42067;BME280;27734;47.028;28.820;2024-01-15T06:40:54;99520.83;;;-5.20;74.81
42067;BME280;27734;47.028;28.820;2024-01-15T06:43:30;99511.77;;;-5.17;74.59
42067;BME280;27734;47.028;28.820;2024-01-15T06:46:02;99503.29;;;-5.06;75.05
42067;BME280;27734;47.028;28.820;2024-01-15T06:48:34;99488.93;;;-4.93;75.36
42067;BME280;27734;47.028;28.820;2024-01-15T06:51:08;99473.80;;;-4.80;75.45
42067;BME280;27734;47.028;28.820;2024-01-15T06:53:39;99467.06;;;-4.67;75.62
42067;BME280;27734;47.028;28.820;2024-01-15T06:56:12;99463.14;;;-4.52;75.77
42067;BME280;27734;47.028;28.820;2024-01-15T06:58:43;99460.14;;;-4.36;75.96
42067;BME280;27734;47.028;28.820;2024-01-15T07:01:14;99451.84;;;-4.22;75.67
42067;BME280;27734;47.028;28.820;2024-01-15T07:03:46;99444.42;;;-4.07;76.34
42067;BME280;27734;47.028;28.820;2024-01-15T07:06:17;99444.59;;;-3.93;75.94
42067;BME280;27734;47.028;28.820;2024-01-15T07:08:48;99441.50;;;-3.77;76.22
42067;BME280;27734;47.028;28.820;2024-01-15T07:11:20;99449.46;;;-3.63;76.66
42067;BME280;27734;47.028;28.820;2024-01-15T07:13:54;99452.14;;;-3.49;76.01
42067;BME280;27734;47.028;28.820;2024-01-15T07:16:25;99456.73;;;-3.45;75.26
42067;BME280;27734;47.028;28.820;2024-01-15T07:19:11;99458.64;;;-3.42;75.75
42067;BME280;27734;47.028;28.820;2024-01-15T07:21:52;99458.06;;;-3.38;75.42
42067;BME280;27734;47.028;28.820;2024-01-15T07:24:25;99449.17;;;-3.32;74.52
42067;BME280;27734;47.028;28.820;2024-01-15T07:26:56;99456.20;;;-3.17;75.59
42067;BME280;27734;47.028;28.820;2024-01-15T07:29:29;99450.61;;;-3.00;75.26
42067;BME280;27734;47.028;28.820;2024-01-15T07:32:00;99455.38;;;-2.81;76.16
42067;BME280;27734;47.028;28.820;2024-01-15T07:34:32;99461.39;;;-2.68;75.87
42067;BME280;27734;47.028;28.820;2024-01-15T07:37:03;99461.81;;;-2.50;76.10
42067;BME280;27734;47.028;28.820;2024-01-15T07:39:35;99464.10;;;-2.30;76.08
42067;BME280;27734;47.028;28.820;2024-01-15T07:42:07;99457.45;;;-2.14;75.41
42067;BME280;27734;47.028;28.820;2024-01-15T07:44:38;99449.22;;;-1.97;75.89
42067;BME280;27734;47.028;28.820;2024-01-15T07:47:09;99440.95;;;-1.79;76.02
42067;BME280;27734;47.028;28.820;2024-01-15T07:49:40;99428.82;;;-1.69;76.33
42067;BME280;27734;47.028;28.820;2024-01-15T07:52:11;99434.82;;;-1.43;76.34
42067;BME280;27734;47.028;28.820;2024-01-15T07:54:43;99425.02;;;-1.22;75.16
42067;BME280;27734;47.028;28.820;2024-01-15T07:57:15;99418.98;;;-0.96;76.46
42067;BME280;27734;47.028;28.820;2024-01-15T07:59:47;99413.59;;;-0.72;75.79
42067;BME280;27734;47.028;28.820;2024-01-15T08:02:18;99415.81;;;-0.50;75.80
42067;BME280;27734;47.028;28.820;2024-01-15T08:04:49;99423.80;;;-0.32;76.21
42067;BME280;27734;47.028;28.820;2024-01-15T08:07:20;99421.89;;;-0.21;75.62
42067;BME280;27734;47.028;28.820;2024-01-15T08:09:52;99415.69;;;-0.10;76.08
42067;BME280;27734;47.028;28.820;2024-01-15T08:12:25;99405.50;;;0.07;76.30
42067;BME280;27734;47.028;28.820;2024-01-15T08:14:56;99405.77;;;0.26;76.09
42067;BME280;27734;47.028;28.820;2024-01-15T08:17:28;99400.98;;;0.32;75.70
42067;BME280;27734;47.028;28.820;2024-01-15T08:19:59;99406.06;;;0.46;76.00
42067;BME280;27734;47.028;28.820;2024-01-15T08:22:34;99406.66;;;0.71;76.39
42067;BME280;27734;47.028;28.820;2024-01-15T08:25:07;99403.62;;;0.94;76.08
42067;BME280;27734;47.028;28.820;2024-01-15T08:27:43;99400.03;;;1.06;75.64
42067;BME280;27734;47.028;28.820;2024-01-15T08:30:16;99398.13;;;1.19;76.32
42067;BME280;27734;47.028;28.820;2024-01-15T08:32:50;99399.17;;;1.22;76.49
42067;BME280;27734;47.028;28.820;2024-01-15T08:35:21;99386.84;;;1.33;75.89
42067;BME280;27734;47.028;28.820;2024-01-15T08:37:58;99386.13;;;1.36;75.72
42067;BME280;27734;47.028;28.820;2024-01-15T08:40:29;99399.22;;;1.39;75.73
42067;BME280;27734;47.028;28.820;2024-01-15T08:43:01;99402.60;;;1.38;75.97
42067;BME280;27734;47.028;28.820;2024-01-15T08:45:32;99410.73;;;1.29;74.87
42067;BME280;27734;47.028;28.820;2024-01-15T08:48:04;99399.34;;;1.25;75.17
42067;BME280;27734;47.028;28.820;2024-01-15T08:50:38;99398.47;;;1.25;75.27
42067;BME280;27734;47.028;28.820;2024-01-15T08:53:11;99389.72;;;1.23;74.83
42067;BME280;27734;47.028;28.820;2024-01-15T08:55:43;99383.13;;;1.28;75.30
42067;BME280;27734;47.028;28.820;2024-01-15T08:58:15;99378.13;;;1.31;75.55
42067;BME280;27734;47.028;28.820;2024-01-15T09:00:46;99380.05;;;1.35;74.89
42067;BME280;27734;47.028;28.820;2024-01-15T09:03:19;99380.22;;;1.38;74.81
42067;BME280;27734;47.028;28.820;2024-01-15T09:05:50;99377.00;;;1.42;75.27
42067;BME280;27734;47.028;28.820;2024-01-15T09:08:21;99370.38;;;1.48;75.40
42067;BME280;27734;47.028;28.820;2024-01-15T09:10:53;99371.53;;;1.53;74.09
42067;BME280;27734;47.028;28.820;2024-01-15T09:13:24;99360.28;;;1.52;74.25
42067;BME280;27734;47.028;28.820;2024-01-15T09:15:57;99345.01;;;1.57;73.74
42067;BME280;27734;47.028;28.820;2024-01-15T09:18:29;99339.20;;;1.61;73.85
42067;BME280;27734;47.028;28.820;2024-01-15T09:21:00;99344.30;;;1.59;72.41
42067;BME280;27734;47.028;28.820;2024-01-15T09:23:33;99344.38;;;1.61;72.96
42067;BME280;27734;47.028;28.820;2024-01-15T09:26:06;99350.02;;;1.54;73.07
42067;BME280;27734;47.028;28.820;2024-01-15T09:28:41;99332.50;;;1.48;72.96
42067;BME280;27734;47.028;28.820;2024-01-15T09:31:13;99323.59;;;1.43;73.08
42067;BME280;27734;47.028;28.820;2024-01-15T09:33:50;99328.68;;;1.41;72.76
42067;BME280;27734;47.028;28.820;2024-01-15T09:36:25;99311.09;;;1.34;71.95
42067;BME280;27734;47.028;28.820;2024-01-15T09:38:57;99312.69;;;1.32;72.23
42067;BME280;27734;47.028;28.820;2024-01-15T09:41:28;99303.17;;;1.31;72.11
42067;BME280;27734;47.028;28.820;2024-01-15T09:44:00;99294.12;;;1.39;72.32
42067;BME280;27734;47.028;28.820;2024-01-15T09:46:33;99290.31;;;1.49;72.36
42067;BME280;27734;47.028;28.820;2024-01-15T09:49:04;99291.66;;;1.59;72.25
42067;BME280;27734;47.028;28.820;2024-01-15T09:51:37;99280.92;;;1.68;71.81
42067;BME280;27734;47.028;28.820;2024-01-15T09:54:10;99281.47;;;1.78;72.14
42067;BME280;27734;47.028;28.820;2024-01-15T09:56:48;99275.97;;;1.89;72.35
42067;BME280;27734;47.028;28.820;2024-01-15T09:59:20;99274.56;;;1.95;72.38
42067;BME280;27734;47.028;28.820;2024-01-15T10:01:52;99271.72;;;2.07;72.33
42067;BME280;27734;47.028;28.820;2024-01-15T10:04:25;99261.56;;;2.12;71.80
42067;BME280;27734;47.028;28.820;2024-01-15T10:06:59;99256.61;;;2.16;71.27
42067;BME280;27734;47.028;28.820;2024-01-15T10:09:35;99257.52;;;2.17;71.51
42067;BME280;27734;47.028;28.820;2024-01-15T10:12:07;99263.42;;;2.14;71.12
42067;BME280;27734;47.028;28.820;2024-01-15T10:14:42;99249.76;;;2.17;70.53
42067;BME280;27734;47.028;28.820;2024-01-15T10:17:15;99239.56;;;2.20;71.63
42067;BME280;27734;47.028;28.820;2024-01-15T10:19:47;99249.15;;;2.23;70.97
42067;BME280;27734;47.028;28.820;2024-01-15T10:22:19;99236.36;;;2.26;71.74
42067;BME280;27734;47.028;28.820;2024-01-15T10:24:51;99236.50;;;2.29;71.72
42067;BME280;27734;47.028;28.820;2024-01-15T10:27:22;99222.53;;;2.25;70.06
42067;BME280;27734;47.028;28.820;2024-01-15T10:29:53;99224.40;;;2.28;71.47
42067;BME280;27734;47.028;28.820;2024-01-15T10:32:24;99211.06;;;2.38;72.05
42067;BME280;27734;47.028;28.820;2024-01-15T10:35:02;99214.16;;;2.49;71.49
42067;BME280;27734;47.028;28.820;2024-01-15T10:37:41;99210.91;;;2.53;71.52
42067;BME280;27734;47.028;28.820;2024-01-15T10:40:14;99200.22;;;2.65;72.11
42067;BME280;27734;47.028;28.820;2024-01-15T10:42:50;99213.00;;;2.80;71.29
42067;BME280;27734;47.028;28.820;2024-01-15T10:45:22;99210.76;;;2.87;71.49
42067;BME280;27734;47.028;28.820;2024-01-15T10:47:56;99209.46;;;2.97;70.90
42067;BME280;27734;47.028;28.820;2024-01-15T10:50:28;99211.17;;;3.16;71.33
42067;BME280;27734;47.028;28.820;2024-01-15T10:53:00;99200.73;;;3.34;71.56
42067;BME280;27734;47.028;28.820;2024-01-15T10:55:33;99200.78;;;3.55;71.83
42067;BME280;27734;47.028;28.820;2024-01-15T10:58:06;99193.75;;;3.74;70.52
42067;BME280;27734;47.028;28.820;2024-01-15T11:00:39;99188.01;;;3.81;68.85
42067;BME280;27734;47.028;28.820;2024-01-15T11:03:11;99183.76;;;3.83;69.75
42067;BME280;27734;47.028;28.820;2024-01-15T11:05:43;99167.88;;;3.96;69.25
42067;BME280;27734;47.028;28.820;2024-01-15T11:08:21;99170.72;;;4.03;70.41
42067;BME280;27734;47.028;28.820;2024-01-15T11:10:55;99167.50;;;4.08;68.85
42067;BME280;27734;47.028;28.820;2024-01-15T11:13:43;99165.78;;;4.09;68.06
42067;BME280;27734;47.028;28.820;2024-01-15T11:16:22;99153.11;;;4.17;69.12
42067;BME280;27734;47.028;28.820;2024-01-15T11:19:16;99149.09;;;4.25;68.77
42067;BME280;27734;47.028;28.820;2024-01-15T11:21:49;99138.94;;;4.31;68.76
42067;BME280;27734;47.028;28.820;2024-01-15T11:24:39;99131.91;;;4.28;66.45
42067;BME280;27734;47.028;28.820;2024-01-15T11:27:14;99129.31;;;4.28;68.95
42067;BME280;27734;47.028;28.820;2024-01-15T11:29:45;99113.67;;;4.27;67.83
42067;BME280;27734;47.028;28.820;2024-01-15T11:32:18;99124.73;;;4.21;66.28
42067;BME280;27734;47.028;28.820;2024-01-15T11:35:07;99116.06;;;4.21;67.45
42067;BME280;27734;47.028;28.820;2024-01-15T11:37:59;99125.17;;;4.11;66.21
42067;BME280;27734;47.028;28.820;2024-01-15T11:40:41;99116.34;;;4.06;67.03
42067;BME280;27734;47.028;28.820;2024-01-15T11:43:17;99114.67;;;4.08;67.14
42067;BME280;27734;47.028;28.820;2024-01-15T11:45:53;99113.92;;;4.10;66.67
42067;BME280;27734;47.028;28.820;2024-01-15T11:48:39;99112.26;;;4.12;67.75
42067;BME280;27734;47.028;28.820;2024-01-15T11:51:14;99122.13;;;4.21;67.90
42067;BME280;27734;47.028;28.820;2024-01-15T11:53:50;99117.87;;;4.23;67.64
42067;BME280;27734;47.028;28.820;2024-01-15T11:56:24;99128.98;;;4.19;67.10
42067;BME280;27734;47.028;28.820;2024-01-15T11:58:58;99125.42;;;4.17;66.41
42067;BME280;27734;47.028;28.820;2024-01-15T12:01:29;99115.94;;;4.18;67.16
42067;BME280;27734;47.028;28.820;2024-01-15T12:04:01;99115.94;;;4.18;67.08
42067;BME280;27734;47.028;28.820;2024-01-15T12:06:33;99113.49;;;4.22;67.14
42067;BME280;27734;47.028;28.820;2024-01-15T12:09:09;99113.55;;;4.24;66.98
42067;BME280;27734;47.028;28.820;2024-01-15T12:14:33;99107.55;;;4.25;66.09
42067;BME280;27734;47.028;28.820;2024-01-15T12:17:08;99098.88;;;4.24;67.01
42067;BME280;27734;47.028;28.820;2024-01-15T12:19:42;99097.91;;;4.22;66.58
42067;BME280;27734;47.028;28.820;2024-01-15T12:22:15;99095.30;;;4.21;66.45
42067;BME280;27734;47.028;28.820;2024-01-15T12:24:56;99096.05;;;4.18;67.40
42067;BME280;27734;47.028;28.820;2024-01-15T12:27:28;99084.38;;;4.07;67.08
42067;BME280;27734;47.028;28.820;2024-01-15T12:30:00;99097.23;;;4.04;67.20
42067;BME280;27734;47.028;28.820;2024-01-15T12:32:32;99097.80;;;3.96;67.30
42067;BME280;27734;47.028;28.820;2024-01-15T12:35:04;99096.74;;;3.91;66.61
42067;BME280;27734;47.028;28.820;2024-01-15T12:37:38;99086.13;;;3.85;66.81
42067;BME280;27734;47.028;28.820;2024-01-15T12:40:11;99091.75;;;3.75;67.18
42067;BME280;27734;47.028;28.820;2024-01-15T12:42:51;99082.84;;;3.68;67.47
42067;BME280;27734;47.028;28.820;2024-01-15T12:45:23;99099.88;;;3.62;66.44
42067;BME280;27734;47.028;28.820;2024-01-15T12:47:54;99097.09;;;3.57;67.55
42067;BME280;27734;47.028;28.820;2024-01-15T12:50:26;99090.94;;;3.55;67.54
42067;BME280;27734;47.028;28.820;2024-01-15T12:52:57;99087.09;;;3.45;66.79
42067;BME280;27734;47.028;28.820;2024-01-15T12:55:29;99086.03;;;3.40;66.32
42067;BME280;27734;47.028;28.820;2024-01-15T12:58:01;99085.05;;;3.38;66.68
42067;BME280;27734;47.028;28.820;2024-01-15T13:00:32;99081.52;;;3.36;66.95
42067;BME280;27734;47.028;28.820;2024-01-15T13:03:04;99074.42;;;3.32;66.71
42067;BME280;27734;47.028;28.820;2024-01-15T13:05:35;99066.52;;;3.29;66.75
42067;BME280;27734;47.028;28.820;2024-01-15T13:08:07;99062.80;;;3.22;66.99
42067;BME280;27734;47.028;28.820;2024-01-15T13:10:38;99052.23;;;3.17;67.39
42067;BME280;27734;47.028;28.820;2024-01-15T13:13:12;99055.54;;;3.13;66.51
42067;BME280;27734;47.028;28.820;2024-01-15T13:15:43;99036.17;;;3.05;66.68
42067;BME280;27734;47.028;28.820;2024-01-15T13:18:17;99047.19;;;2.99;67.37
42067;BME280;27734;47.028;28.820;2024-01-15T13:20:49;99040.96;;;2.96;67.16
42067;BME280;27734;47.028;28.820;2024-01-15T13:23:20;99034.77;;;2.92;67.37
42067;BME280;27734;47.028;28.820;2024-01-15T13:25:52;99029.33;;;2.86;67.66